Time;durP1;ratioP1;P1;durP2;ratioP2;P2;SDS_P1;SDS_P2;PMS_P1;PMS_P2;Temp;Humidity;BMP_temperature;BMP_pressure;BME280_temperature;BME280_humidity;BME280_pressure;Samples;Min_cycle;Max_cycle;Signal;HPM_P1;HPM_P2
2022/02/02 00:00:56;;;;;;;8.65;4.60;;;;;;;0.44;74.79;92468.25;5029814;28;20086;-36
2022/02/02 00:03:24;;;;;;;7.07;3.97;;;;;;;0.49;75.39;92466.72;5037436;28;20024;-38
2022/02/02 00:08:32;;;;;;;5.22;3.28;;;;;;;0.56;74.72;92468.88;5041916;28;20059;-37
2022/02/02 00:13:41;;;;;;;8.23;4.57;;;;;;;0.66;75.37;92465.31;5049864;28;20040;-36
2022/02/02 00:21:17;;;;;;;9.38;4.75;;;;;;;0.66;74.84;92462.59;5041184;28;20057;-37
2022/02/02 00:23:47;;;;;;;8.43;5.50;;;;;;;0.62;74.59;92469.56;5037741;28;20053;-37
2022/02/02 00:26:22;;;;;;;6.15;4.80;;;;;;;0.56;75.31;92450.59;5033304;28;20034;-36
2022/02/02 00:28:52;;;;;;;10.43;5.85;;;;;;;0.34;75.36;92436.50;5032979;28;20025;-37
2022/02/02 00:31:24;;;;;;;8.90;4.90;;;;;;;0.52;75.77;92449.44;5033383;28;20503;-36
2022/02/02 00:33:56;;;;;;;9.75;5.43;;;;;;;0.46;75.31;92446.00;5033372;28;20029;-37
2022/02/02 00:36:25;;;;;;;10.38;6.55;;;;;;;0.38;75.82;92448.56;5033436;28;20029;-37
2022/02/02 00:38:52;;;;;;;8.57;5.93;;;;;;;0.48;75.90;92444.25;5033557;28;20040;-36
2022/02/02 00:41:18;;;;;;;7.40;5.22;;;;;;;0.44;75.96;92437.63;5033270;28;20025;-37
2022/02/02 00:43:46;;;;;;;4.65;3.53;;;;;;;0.49;75.32;92440.31;5033256;28;20083;-36
2022/02/02 00:46:12;;;;;;;7.40;5.05;;;;;;;0.50;75.53;92451.88;5033544;28;20029;-36
2022/02/02 00:48:37;;;;;;;5.10;4.10;;;;;;;0.61;75.21;92441.66;5033156;28;20518;-37
2022/02/02 00:51:03;;;;;;;6.30;4.82;;;;;;;0.48;75.26;92438.09;5033106;28;20032;-36
2022/02/02 00:53:29;;;;;;;17.23;10.13;;;;;;;0.54;75.20;92444.22;5032939;28;20022;-36
2022/02/02 00:55:55;;;;;;;18.98;11.73;;;;;;;0.46;75.00;92430.44;5033205;28;20036;-37
2022/02/02 00:58:21;;;;;;;34.08;16.77;;;;;;;0.48;75.34;92424.50;5033324;28;20483;-36
2022/02/02 01:00:47;;;;;;;20.83;13.25;;;;;;;0.67;74.27;92433.47;5032940;28;20505;-38
2022/02/02 01:03:13;;;;;;;10.00;5.10;;;;;;;0.49;73.67;92429.44;5032887;28;20049;-38
2022/02/02 01:05:38;;;;;;;6.00;4.20;;;;;;;0.41;74.27;92425.09;5033148;28;20033;-37
2022/02/02 01:11:03;;;;;;;5.85;4.38;;;;;;;0.47;74.32;92414.91;5051286;28;20040;-37
2022/02/02 01:18:46;;;;;;;9.40;4.80;;;;;;;0.36;74.77;92417.72;5052851;28;20060;-37
2022/02/02 01:21:28;;;;;;;7.82;4.43;;;;;;;0.41;74.63;92420.38;5052824;28;20036;-38
2022/02/02 01:29:30;;;;;;;18.02;9.90;;;;;;;0.50;73.72;92408.44;5016532;28;20144;-37
2022/02/02 01:31:57;;;;;;;11.23;6.68;;;;;;;0.49;74.02;92393.41;5032579;28;20407;-38
2022/02/02 01:34:23;;;;;;;7.32;4.95;;;;;;;0.46;73.57;92389.72;5032320;28;20449;-37
2022/02/02 01:36:48;;;;;;;9.07;5.80;;;;;;;0.32;74.44;92388.16;5032283;28;20024;-37
2022/02/02 01:39:16;;;;;;;9.77;6.57;;;;;;;0.41;74.49;92378.94;5032173;28;20052;-38
2022/02/02 01:41:44;;;;;;;7.63;5.47;;;;;;;0.41;74.79;92379.66;5032274;28;20035;-38
2022/02/02 01:44:20;;;;;;;13.85;8.55;;;;;;;0.24;74.34;92373.66;5032521;28;20072;-38
2022/02/02 01:46:47;;;;;;;13.13;7.95;;;;;;;0.27;75.64;92361.03;5032158;28;20063;-37
2022/02/02 01:57:34;;;;;;;28.13;15.82;;;;;;;0.13;75.11;92324.19;5015245;28;20415;-36
2022/02/02 01:59:57;;;;;;;19.23;10.25;;;;;;;0.46;74.72;92348.25;5031056;28;20495;-36
2022/02/02 02:02:23;;;;;;;9.00;5.70;;;;;;;0.40;74.87;92347.59;5014071;28;20458;-36
2022/02/02 02:04:49;;;;;;;11.30;8.02;;;;;;;0.40;74.88;92355.72;5031882;28;20087;-36
2022/02/02 02:07:15;;;;;;;8.85;5.75;;;;;;;0.31;74.76;92342.50;5037656;28;20022;-37
2022/02/02 02:09:40;;;;;;;10.32;6.57;;;;;;;0.38;75.05;92339.22;5041872;28;20100;-36
2022/02/02 02:12:08;;;;;;;15.07;7.18;;;;;;;0.36;74.74;92336.28;5039795;28;20034;-37
2022/02/02 02:17:04;;;;;;;7.40;5.65;;;;;;;0.43;73.94;92327.56;5039676;28;20022;-38
2022/02/02 02:19:30;;;;;;;12.20;7.38;;;;;;;0.27;74.51;92331.19;5031754;28;20025;-38
2022/02/02 02:21:55;;;;;;;11.52;7.38;;;;;;;0.15;74.30;92302.72;5013768;28;20017;-38
2022/02/02 02:24:22;;;;;;;10.73;6.25;;;;;;;0.26;73.77;92322.31;5050969;28;20033;-38
2022/02/02 02:26:48;;;;;;;11.70;6.75;;;;;;;0.33;73.84;92327.16;5043750;28;20514;-36
2022/02/02 02:29:33;;;;;;;9.63;7.93;;;;;;;0.26;73.86;92322.31;5031326;28;20033;-36
2022/02/02 02:56:02;;;;;;;23.15;13.40;;;;;;;0.42;72.62;92332.25;5031220;28;20667;-36
2022/02/02 03:31:11;;;;;;;14.18;8.88;;;;;;;0.40;74.32;92312.28;5030550;28;20040;-36
2022/02/02 03:55:26;;;;;;;6.78;4.85;;;;;;;0.23;74.17;92290.03;5029990;28;20286;-36
2022/02/02 03:58:12;;;;;;;6.20;4.28;;;;;;;0.30;73.95;92292.19;5029888;28;20029;-36
2022/02/02 04:03:32;;;;;;;9.13;6.25;;;;;;;0.35;73.64;92297.53;5029857;28;20041;-36
2022/02/02 04:06:05;;;;;;;8.05;5.63;;;;;;;0.35;73.27;92297.53;5029765;28;20034;-36
2022/02/02 04:08:34;;;;;;;9.50;6.45;;;;;;;0.36;73.12;92288.16;5040562;28;20028;-36
2022/02/02 04:11:03;;;;;;;8.65;5.85;;;;;;;0.37;73.92;92291.63;5049822;28;20147;-36
2022/02/02 04:14:34;;;;;;;;;;;;;;;0.48;73.21;92286.03;5050186;28;20033;-37
2022/02/02 04:17:11;;;;;;;9.60;5.43;;;;;;;0.56;73.74;92295.06;5033727;28;19971;-36
2022/02/02 04:52:23;;;;;;;7.55;4.63;;;;;;;0.23;75.92;92320.63;5029685;28;20037;-37
2022/02/02 04:55:04;;;;;;;7.53;5.25;;;;;;;0.32;75.75;92324.97;5029234;28;20034;-37
2022/02/02 04:57:59;;;;;;;6.35;4.80;;;;;;;0.22;76.22;92308.28;5029250;28;20025;-38
2022/02/02 05:08:00;;;;;;;8.57;5.72;;;;;;;0.35;76.14;92315.78;5033200;28;20078;-36
2022/02/02 05:24:26;;;;;;;8.73;6.80;;;;;;;0.31;76.85;92320.78;5013173;28;20116;-36
2022/02/02 05:53:19;;;;;;;8.98;6.35;;;;;;;-0.13;75.36;92301.00;5012242;28;20451;-36
2022/02/02 05:55:45;;;;;;;16.45;9.07;;;;;;;0.00;75.62;92341.09;5012245;28;20021;-36
2022/02/02 05:58:11;;;;;;;10.60;7.35;;;;;;;0.02;75.16;92335.16;4994783;28;20032;-36
2022/02/02 06:00:39;;;;;;;10.73;6.00;;;;;;;0.06;75.53;92343.75;5012308;28;20054;-37
2022/02/02 06:03:10;;;;;;;8.18;5.15;;;;;;;0.03;75.00;92329.22;5012083;28;20026;-37
2022/02/02 06:05:37;;;;;;;8.30;5.13;;;;;;;0.07;74.91;92337.06;5012298;28;20033;-38
2022/02/02 06:08:10;;;;;;;6.43;4.53;;;;;;;0.07;74.92;92345.19;5013440;28;20040;-37
2022/02/02 06:10:37;;;;;;;6.82;4.72;;;;;;;0.00;74.50;92333.66;5012633;28;20030;-37
2022/02/02 06:13:02;;;;;;;8.60;5.80;;;;;;;0.05;74.71;92348.44;5013912;28;20407;-37
2022/02/02 06:15:28;;;;;;;8.57;5.57;;;;;;;0.09;74.32;92353.59;5031699;28;20033;-37
2022/02/02 06:17:55;;;;;;;11.23;7.80;;;;;;;0.14;74.04;92350.06;5031820;28;20422;-37
2022/02/02 06:20:21;;;;;;;11.80;7.72;;;;;;;0.14;73.87;92350.81;5031590;28;20028;-37
2022/02/02 06:23:11;;;;;;;12.45;7.32;;;;;;;0.16;74.36;92353.00;5031641;28;20025;-37
2022/02/02 06:25:41;;;;;;;10.20;6.95;;;;;;;0.13;74.51;92362.19;5031334;28;20034;-37
2022/02/02 06:28:09;;;;;;;10.60;6.32;;;;;;;0.12;74.81;92364.16;5013137;28;20033;-37
2022/02/02 06:30:35;;;;;;;8.00;4.80;;;;;;;0.24;74.56;92354.66;5011483;28;20025;-36
2022/02/02 06:33:08;;;;;;;10.57;6.72;;;;;;;0.29;74.71;92364.00;5011722;28;20030;-37
2022/02/02 06:35:34;;;;;;;22.95;12.25;;;;;;;0.39;74.53;92360.41;5011710;28;20447;-36
2022/02/02 06:38:00;;;;;;;13.05;7.78;;;;;;;0.41;74.39;92357.22;5011788;28;20030;-36
2022/02/02 06:40:26;;;;;;;6.93;5.00;;;;;;;0.31;74.32;92373.09;5011507;28;20481;-36
2022/02/02 06:42:52;;;;;;;8.70;5.32;;;;;;;0.26;74.22;92379.31;5011217;28;20014;-36
2022/02/02 06:45:18;;;;;;;9.20;4.70;;;;;;;0.38;74.91;92385.38;5011032;28;20080;-37
2022/02/02 06:47:45;;;;;;;6.05;4.55;;;;;;;0.42;74.45;92392.00;5011466;28;20482;-37
2022/02/02 06:53:23;;;;;;;6.00;4.30;;;;;;;0.52;74.28;92379.53;5010878;28;20027;-36
2022/02/02 06:56:39;;;;;;;7.30;4.28;;;;;;;0.53;73.79;92394.59;5010780;28;20538;-37
2022/02/02 06:59:30;;;;;;;7.93;5.03;;;;;;;0.57;74.14;92395.03;5007025;28;20041;-37
2022/02/02 07:04:45;;;;;;;22.73;14.00;;;;;;;0.65;74.11;92387.06;5011258;28;20139;-37
2022/02/02 07:07:26;;;;;;;8.93;6.15;;;;;;;0.55;74.10;92378.53;4996145;28;20030;-36
2022/02/02 07:10:09;;;;;;;8.70;7.22;;;;;;;0.57;74.19;92386.91;5011171;28;20030;-36
2022/02/02 07:15:31;;;;;;;29.90;22.38;;;;;;;0.71;73.53;92401.31;5031170;28;20033;-36
2022/02/02 07:20:45;;;;;;;9.80;7.65;;;;;;;0.83;73.38;92391.03;5017055;28;20510;-37
2022/02/02 07:28:55;;;;;;;10.73;7.25;;;;;;;1.04;73.12;92398.19;5028159;28;20100;-36
2022/02/02 07:31:32;;;;;;;12.75;8.10;;;;;;;1.00;72.83;92395.03;5044382;28;20083;-36
2022/02/02 07:34:29;;;;;;;14.35;9.52;;;;;;;1.08;72.52;92398.66;5048031;28;20083;-36
2022/02/02 07:36:58;;;;;;;11.15;7.22;;;;;;;1.20;72.31;92397.25;5048051;28;20035;-37
2022/02/02 07:39:25;;;;;;;7.95;6.05;;;;;;;1.15;72.23;92395.34;5030041;28;20039;-37
2022/02/02 07:41:54;;;;;;;8.15;6.38;;;;;;;1.19;71.44;92395.78;5043187;28;20033;-36
2022/02/02 07:44:23;;;;;;;;;;;;;;;1.17;71.38;92394.84;5045057;28;20111;-37
2022/02/02 07:46:51;;;;;;;;;;;;;;;1.20;71.16;92394.53;5031153;28;19920;-36
2022/02/02 07:49:18;;;;;;;12.52;8.60;;;;;;;1.26;71.33;92400.66;5047358;28;19917;-38
2022/02/02 07:51:50;;;;;;;11.88;7.80;;;;;;;1.28;71.68;92409.03;5043605;28;20029;-36
2022/02/02 07:54:20;;;;;;;20.00;11.98;;;;;;;1.42;71.03;92407.84;5037865;28;20629;-37
2022/02/02 07:56:47;;;;;;;13.10;8.45;;;;;;;1.36;70.47;92407.19;5047187;28;20101;-36
2022/02/02 07:59:20;;;;;;;11.40;6.03;;;;;;;1.38;70.59;92407.41;5043461;28;20056;-37
2022/02/02 08:01:51;;;;;;;10.15;8.13;;;;;;;1.40;71.19;92398.75;5027084;28;20033;-37
2022/02/02 08:04:20;;;;;;;8.18;5.82;;;;;;;1.52;70.94;92395.34;5035083;28;20036;-37
2022/02/02 08:06:51;;;;;;;14.00;10.45;;;;;;;1.57;70.62;92390.34;5038015;28;20063;-37
2022/02/02 08:10:02;;;;;;;19.67;12.80;;;;;;;1.62;70.98;92398.44;5035979;28;20561;-37
2022/02/02 08:12:16;;;;;;;12.88;9.52;;;;;;;1.69;70.27;92397.81;5033365;28;20053;-36
2022/02/02 08:14:43;;;;;;;12.82;7.72;;;;;;;1.78;70.05;92399.41;5038061;28;20494;-37
2022/02/02 08:17:08;;;;;;;19.63;10.88;;;;;;;1.89;69.92;92396.53;5037685;28;20568;-37
2022/02/02 08:19:35;;;;;;;11.15;7.35;;;;;;;2.00;70.19;92402.53;5035501;28;20124;-37
2022/02/02 08:22:00;;;;;;;8.68;6.45;;;;;;;2.06;69.30;92400.47;5036724;28;20084;-37
2022/02/02 08:24:27;;;;;;;12.25;7.75;;;;;;;2.06;68.57;92403.19;5047077;28;20032;-37
2022/02/02 08:26:54;;;;;;;11.15;6.55;;;;;;;2.12;68.59;92398.38;5039221;28;20025;-37
2022/02/02 08:29:22;;;;;;;6.65;5.50;;;;;;;2.10;68.42;92400.88;5027545;28;20503;-38
2022/02/02 08:31:48;;;;;;;9.40;6.30;;;;;;;2.17;68.86;92402.28;5040601;28;20094;-37
2022/02/02 08:34:14;;;;;;;6.75;5.15;;;;;;;2.29;67.19;92409.75;5045942;28;20040;-37
2022/02/02 08:36:41;;;;;;;13.90;10.95;;;;;;;2.25;66.11;92397.69;5048117;28;20029;-38
2022/02/02 08:41:58;;;;;;;28.13;15.50;;;;;;;2.46;65.93;92406.00;5051427;28;20182;-37
2022/02/02 08:44:27;;;;;;;60.00;30.60;;;;;;;2.52;65.93;92395.72;5030816;28;20087;-37
2022/02/02 08:47:06;;;;;;;44.45;25.85;;;;;;;2.58;65.30;92401.84;5030890;28;20549;-37
2022/02/02 08:49:36;;;;;;;42.42;20.27;;;;;;;2.58;64.37;92402.56;5031018;28;20078;-37
2022/02/02 08:52:03;;;;;;;18.27;11.10;;;;;;;2.72;64.64;92406.78;5030396;28;20053;-38
2022/02/02 08:54:44;;;;;;;11.10;7.97;;;;;;;2.93;64.36;92402.16;5030395;28;20108;-37
2022/02/02 08:57:40;;;;;;;11.07;7.07;;;;;;;3.03;63.52;92381.38;5035122;28;20025;-39
2022/02/02 09:00:11;;;;;;;12.10;7.53;;;;;;;3.28;62.81;92395.50;5046620;28;20025;-38
2022/02/02 09:02:40;;;;;;;18.80;11.13;;;;;;;3.38;61.40;92404.00;5031954;28;20025;-37
2022/02/02 09:05:24;;;;;;;17.23;12.45;;;;;;;3.52;60.93;92387.06;5031651;28;20507;-38
2022/02/02 09:07:50;;;;;;;16.83;11.52;;;;;;;3.78;60.65;92392.44;5037128;28;20033;-38
2022/02/02 09:19:59;;;;;;;23.38;15.07;;;;;;;3.93;59.54;92399.31;5052634;28;20040;-38
2022/02/02 09:32:16;;;;;;;4.95;3.80;;;;;;;6.92;50.64;92410.75;5032509;28;20052;-38
2022/02/02 09:34:37;;;;;;;8.15;6.45;;;;;;;7.15;50.94;92399.75;5031679;28;20029;-38
2022/02/02 09:37:02;;;;;;;6.60;5.07;;;;;;;7.57;48.75;92392.50;5032415;28;20028;-39
2022/02/02 09:39:35;;;;;;;7.38;6.22;;;;;;;8.10;48.43;92384.03;5032210;28;20025;-38
2022/02/02 09:42:04;;;;;;;9.52;7.97;;;;;;;8.94;44.79;92371.88;5035390;28;20075;-38
2022/02/02 09:44:36;;;;;;;7.05;6.00;;;;;;;9.25;44.58;92368.84;5052093;28;20083;-38
2022/02/02 09:52:17;;;;;;;14.68;11.90;;;;;;;9.36;44.63;92371.09;5052152;28;20487;-38
2022/02/02 09:57:46;;;;;;;22.20;12.60;;;;;;;8.38;45.52;92372.72;5040313;28;19967;-39
2022/02/02 10:03:09;;;;;;;20.92;14.13;;;;;;;8.04;46.88;92367.00;5031763;28;20053;-38
2022/02/02 10:05:46;;;;;;;23.83;13.00;;;;;;;8.14;46.77;92360.34;5031843;28;20033;-38
2022/02/02 10:11:25;;;;;;;17.83;13.00;;;;;;;7.46;47.88;92368.94;5051862;28;20548;-38
2022/02/02 10:14:14;;;;;;;19.63;13.05;;;;;;;7.05;48.85;92361.16;5051287;28;20037;-38
2022/02/02 10:16:45;;;;;;;19.35;12.65;;;;;;;6.82;48.87;92363.94;5051188;28;20025;-38
2022/02/02 10:19:21;;;;;;;18.15;12.30;;;;;;;6.63;49.47;92362.84;5051481;28;20510;-38
2022/02/02 10:21:47;;;;;;;19.25;12.23;;;;;;;6.64;50.43;92364.34;5051726;28;20463;-38
2022/02/02 10:24:12;;;;;;;23.33;14.32;;;;;;;6.02;50.95;92373.78;5051504;28;20096;-38
2022/02/02 10:26:49;;;;;;;21.83;14.38;;;;;;;5.96;52.61;92370.50;5045340;28;20029;-38
2022/02/02 10:29:15;;;;;;;20.10;13.25;;;;;;;5.61;52.24;92365.09;5031730;28;20104;-38
2022/02/02 10:31:49;;;;;;;21.70;14.73;;;;;;;5.15;54.27;92362.16;5031392;28;20018;-38
2022/02/02 10:34:19;;;;;;;26.67;14.93;;;;;;;5.21;54.62;92364.72;5031527;28;20026;-38
2022/02/02 10:36:46;;;;;;;30.35;18.30;;;;;;;5.15;54.96;92362.16;5014028;28;20099;-38
2022/02/02 10:39:16;;;;;;;31.33;18.23;;;;;;;4.79;55.91;92358.66;5013826;28;20384;-39
2022/02/02 10:41:51;;;;;;;33.50;20.00;;;;;;;4.70;57.18;92358.44;5031156;28;20032;-38
2022/02/02 10:44:24;;;;;;;28.23;17.65;;;;;;;4.55;57.22;92351.59;5031155;28;20053;-38
2022/02/02 10:49:36;;;;;;;23.33;14.13;;;;;;;4.42;56.72;92370.06;5031402;28;20029;-38
2022/02/02 11:00:04;;;;;;;27.58;16.90;;;;;;;3.66;59.68;92353.00;5050799;28;20400;-38
2022/02/02 11:07:59;;;;;;;19.48;12.38;;;;;;;3.77;58.81;92363.69;5044164;28;20423;-38
2022/02/02 11:10:26;;;;;;;22.98;14.25;;;;;;;3.81;58.37;92369.53;5046586;28;20032;-38
2022/02/02 11:12:54;;;;;;;24.38;14.43;;;;;;;3.80;59.12;92353.69;5049588;28;20052;-37
2022/02/02 11:15:41;;;;;;;24.15;14.98;;;;;;;3.98;58.80;92371.16;5050632;28;20114;-38
2022/02/02 11:18:16;;;;;;;23.38;14.13;;;;;;;3.96;59.06;92370.97;5049320;28;20032;-38
2022/02/02 11:20:42;;;;;;;22.92;13.80;;;;;;;4.03;59.30;92357.34;5050339;28;20029;-38
2022/02/02 11:23:08;;;;;;;23.40;15.82;;;;;;;4.06;59.19;92361.03;5050426;28;20021;-38
2022/02/02 11:25:36;;;;;;;31.52;18.77;;;;;;;3.65;59.63;92362.47;5050446;28;20041;-38
2022/02/02 11:28:04;;;;;;;27.85;17.20;;;;;;;3.55;60.10;92347.09;5032553;28;20029;-38
2022/02/02 11:30:30;;;;;;;27.10;16.60;;;;;;;3.56;59.69;92362.19;5030282;28;20033;-37
2022/02/02 11:32:58;;;;;;;31.33;16.48;;;;;;;3.38;61.21;92349.44;5041765;28;20533;-38
2022/02/02 11:35:24;;;;;;;24.02;14.88;;;;;;;3.76;59.99;92350.56;5050450;28;20052;-38
2022/02/02 11:38:17;;;;;;;29.70;17.73;;;;;;;4.18;59.73;92354.75;5050416;28;20037;-38
2022/02/02 11:41:06;;;;;;;45.35;24.38;;;;;;;4.43;58.02;92349.69;5047384;28;20036;-38
2022/02/02 11:43:49;;;;;;;29.15;16.98;;;;;;;4.56;56.94;92355.78;5033253;28;20033;-38
2022/02/02 11:46:47;;;;;;;28.13;15.10;;;;;;;4.53;57.55;92354.13;5038098;28;20052;-37
2022/02/02 11:49:37;;;;;;;15.75;11.02;;;;;;;4.85;56.08;92353.78;5033400;28;20057;-37
2022/02/02 11:52:03;;;;;;;26.98;15.18;;;;;;;5.21;57.00;92348.31;5035979;28;20453;-37
2022/02/02 11:54:31;;;;;;;26.63;17.10;;;;;;;4.95;56.47;92346.56;5049815;28;20033;-37
2022/02/02 11:57:11;;;;;;;24.08;15.57;;;;;;;4.88;56.66;92351.97;5049942;28;20028;-38
2022/02/02 12:05:45;;;;;;;32.72;18.45;;;;;;;4.85;57.05;92348.31;5050103;28;20044;-38
2022/02/02 12:28:00;;;;;;;20.58;13.00;;;;;;;7.57;48.63;92324.56;5039157;28;20606;-38
2022/02/02 12:44:50;;;;;;;13.43;9.95;;;;;;;7.48;47.57;92324.41;5031484;28;20518;-39
2022/02/02 12:57:46;;;;;;;26.88;15.85;;;;;;;6.78;49.79;92327.19;5050982;28;20029;-38
2022/02/02 13:00:23;;;;;;;24.90;15.38;;;;;;;6.50;50.84;92332.88;5050557;28;20513;-38
2022/02/02 13:02:49;;;;;;;25.40;15.88;;;;;;;6.55;49.96;92340.94;5050435;28;20020;-38
2022/02/02 13:05:21;;;;;;;26.58;14.32;;;;;;;6.36;49.81;92337.84;5050460;28;20033;-38
2022/02/02 13:07:47;;;;;;;28.67;14.70;;;;;;;6.40;49.58;92335.47;5050861;28;20452;-40
2022/02/02 13:10:20;;;;;;;30.00;18.17;;;;;;;6.43;50.30;92339.81;5049513;28;20025;-38
2022/02/02 13:12:53;;;;;;;31.38;16.92;;;;;;;6.45;49.87;92325.59;5050153;28;20049;-38
2022/02/02 13:15:44;;;;;;;25.17;15.25;;;;;;;6.37;50.10;92335.81;5050443;28;20029;-40
2022/02/02 13:20:54;;;;;;;28.25;16.40;;;;;;;6.70;49.40;92324.47;5050281;28;20055;-40
2022/02/02 13:26:03;;;;;;;25.95;15.07;;;;;;;6.50;49.18;92332.88;5049479;28;20032;-39
2022/02/02 13:28:54;;;;;;;21.15;13.35;;;;;;;6.25;49.92;92332.72;5030089;28;20105;-38
2022/02/02 13:34:06;;;;;;;26.88;15.38;;;;;;;5.74;51.23;92327.31;5050567;28;20665;-38
2022/02/02 13:36:54;;;;;;;21.58;13.07;;;;;;;5.41;51.53;92339.28;5050405;28;20387;-37
2022/02/02 13:48:07;;;;;;;26.27;15.18;;;;;;;4.75;54.88;92325.47;5035052;28;20477;-37
2022/02/02 13:53:53;;;;;;;21.50;11.77;;;;;;;4.30;54.32;92317.72;5036903;28;20099;-37
2022/02/02 14:33:25;;;;;;;17.67;11.25;;;;;;;3.25;54.88;92347.47;5027719;28;20115;-38
2022/02/02 14:35:54;;;;;;;18.05;11.90;;;;;;;3.07;55.25;92338.16;5027428;28;20805;-39
2022/02/02 14:38:20;;;;;;;26.25;13.27;;;;;;;3.13;56.16;92353.69;5027578;28;20021;-37
2022/02/02 14:40:59;;;;;;;23.23;13.38;;;;;;;3.08;57.18;92356.00;5037103;28;20718;-38
2022/02/02 14:43:36;;;;;;;27.95;14.18;;;;;;;3.06;56.98;92336.72;5047835;28;20075;-40
2022/02/02 14:46:04;;;;;;;23.55;13.50;;;;;;;2.96;57.01;92348.56;5048905;28;20460;-42
2022/02/02 14:48:38;;;;;;;26.60;13.73;;;;;;;3.04;56.56;92347.41;5048970;28;20029;-39
2022/02/02 15:30:48;;;;;;;20.42;12.45;;;;;;;0.72;62.03;92356.59;5036016;28;20040;-36
2022/02/02 15:33:20;;;;;;;21.88;13.25;;;;;;;0.52;62.33;92362.53;5046560;28;20029;-37
2022/02/02 15:35:48;;;;;;;25.40;13.70;;;;;;;0.66;62.63;92364.81;5046954;28;20591;-38
2022/02/02 15:38:25;;;;;;;27.23;13.75;;;;;;;0.76;62.30;92371.38;5037096;28;20039;-37
2022/02/02 15:40:57;;;;;;;40.90;22.80;;;;;;;0.54;63.22;92368.91;5027932;28;20491;-37
2022/02/02 15:59:42;;;;;;;17.45;10.82;;;;;;;0.68;63.46;92391.47;5024473;28;20041;-36
2022/02/02 16:04:35;;;;;;;23.73;13.10;;;;;;;0.36;65.14;92393.28;5024442;28;20104;-37
2022/02/02 16:07:04;;;;;;;36.45;14.27;;;;;;;0.12;66.23;92395.97;5023995;28;20439;-37
2022/02/02 16:09:39;;;;;;;35.42;17.55;;;;;;;0.00;67.08;92393.38;5025538;28;20041;-37
2022/02/02 16:12:10;;;;;;;28.05;17.55;;;;;;;0.17;67.11;92395.19;5026843;28;20058;-36
2022/02/02 16:14:42;;;;;;;32.08;16.55;;;;;;;0.12;67.20;92402.16;5027812;28;20510;-37
2022/02/02 16:17:32;;;;;;;68.93;29.52;;;;;;;-0.04;66.79;92405.72;5028020;28;20104;-37
2022/02/02 16:38:32;;;;;;;27.45;16.50;;;;;;;-0.29;69.58;92420.47;5046733;28;20047;-37
2022/02/02 16:40:58;;;;;;;40.72;20.92;;;;;;;-0.15;68.92;92428.25;5047521;28;20028;-37
2022/02/02 16:43:23;;;;;;;27.35;15.95;;;;;;;-0.10;68.72;92418.59;5047647;28;20019;-36
2022/02/02 16:45:53;;;;;;;26.90;13.95;;;;;;;0.14;68.68;92429.53;5047097;28;20398;-37
2022/02/02 16:48:20;;;;;;;65.90;30.90;;;;;;;-0.05;69.61;92443.00;5047097;28;20406;-37
2022/02/02 16:50:48;;;;;;;58.40;25.10;;;;;;;-0.19;70.63;92448.75;5029327;28;20025;-37
2022/02/02 17:27:56;;;;;;;45.88;25.35;;;;;;;0.72;67.38;92421.78;5048289;28;20124;-37
2022/02/02 17:31:18;;;;;;;54.37;28.30;;;;;;;0.78;68.14;92438.75;5046782;28;20044;-37
2022/02/02 17:33:53;;;;;;;30.40;17.25;;;;;;;0.98;67.21;92440.28;5047818;28;20054;-37
2022/02/02 17:38:54;;;;;;;32.72;18.85;;;;;;;0.34;69.63;92441.94;5048024;28;20025;-37
2022/02/02 18:17:50;;;;;;;39.22;21.13;;;;;;;-0.11;72.04;92476.84;5047341;28;20411;-37
2022/02/02 18:19:05;;;;;;;48.42;23.55;;;;;;;-0.05;71.71;92475.56;5039208;28;20262;-37
2022/02/02 18:21:32;;;;;;;33.95;20.73;;;;;;;-0.03;71.69;92480.47;5045357;28;20063;-37
2022/02/02 18:24:25;;;;;;;36.80;19.55;;;;;;;-0.02;71.72;92482.66;5037005;28;20095;-37
2022/02/02 18:26:59;;;;;;;38.30;20.58;;;;;;;-0.16;71.93;92458.63;5032808;28;20064;-37
2022/02/02 18:34:33;;;;;;;49.60;27.17;;;;;;;0.09;71.47;92481.13;5027010;28;20037;-37
2022/02/02 19:00:59;;;;;;;35.80;17.58;;;;;;;-0.26;73.68;92523.25;4956297;28;20085;-37
2022/02/02 19:56:43;;;;;;;40.22;21.58;;;;;;;0.63;70.46;92533.50;5025767;28;20037;-37
2022/02/02 20:02:09;;;;;;;30.02;17.08;;;;;;;0.65;70.26;92533.75;5025922;28;20039;-37
2022/02/02 20:12:04;;;;;;;39.03;21.20;;;;;;;0.73;70.34;92548.97;5024963;28;20049;-37
2022/02/02 20:14:29;;;;;;;29.73;17.60;;;;;;;0.77;70.24;92552.16;5040213;28;20044;-36
2022/02/02 20:16:54;;;;;;;32.85;18.38;;;;;;;0.76;69.95;92542.50;5047901;28;20029;-35
2022/02/02 20:19:20;;;;;;;37.53;18.35;;;;;;;0.95;68.71;92545.31;5048417;28;20029;-35
2022/02/02 20:21:50;;;;;;;32.72;17.38;;;;;;;1.08;68.02;92541.97;5048557;28;20040;-36
2022/02/02 20:24:20;;;;;;;40.60;19.08;;;;;;;1.02;68.42;92544.75;5029806;28;20116;-36
2022/02/02 20:26:48;;;;;;;37.25;18.90;;;;;;;0.92;68.79;92545.59;5026624;28;20029;-36
2022/02/02 20:29:14;;;;;;;36.78;19.50;;;;;;;0.90;69.04;92543.38;5035851;28;20456;-37
2022/02/02 20:31:41;;;;;;;39.35;20.67;;;;;;;0.94;67.76;92562.88;5040267;28;20426;-36
2022/02/02 20:34:06;;;;;;;39.85;20.88;;;;;;;1.02;68.71;92552.19;5044888;28;20040;-36
2022/02/02 20:36:36;;;;;;;33.03;18.33;;;;;;;0.98;68.94;92555.16;5021139;28;20131;-35
2022/02/02 20:39:01;;;;;;;;;;;;;;;0.99;67.73;92553.94;5039951;28;20043;-35
2022/02/02 20:41:26;;;;;;;36.55;19.25;;;;;;;0.96;68.35;92544.06;5039767;28;20464;-36
2022/02/02 20:43:59;;;;;;;32.60;19.02;;;;;;;0.97;67.33;92542.84;5037909;28;20060;-35
2022/02/02 20:46:46;;;;;;;37.47;19.15;;;;;;;1.04;67.66;92542.25;5041712;28;20029;-35
2022/02/02 21:05:53;;;;;;;37.38;21.20;;;;;;;1.04;67.75;92536.81;5051567;28;20587;-35
2022/02/02 21:10:46;;;;;;;32.42;18.73;;;;;;;1.01;67.82;92542.53;5050133;28;20032;-35
2022/02/02 21:13:54;;;;;;;33.15;19.15;;;;;;;1.00;67.31;92546.50;5039542;28;20498;-35
2022/02/02 21:16:01;;;;;;;44.10;24.02;;;;;;;0.78;67.91;92503.97;5019592;28;20052;-35
2022/02/02 21:18:33;;;;;;;40.13;20.65;;;;;;;1.05;66.81;92545.72;5031626;28;20042;-36
2022/02/02 21:21:06;;;;;;;43.65;23.33;;;;;;;1.01;67.52;92545.25;5051377;28;20087;-35
2022/02/02 21:28:30;;;;;;;44.10;23.20;;;;;;;0.90;66.80;92532.53;5029808;28;20034;-35
2022/02/02 21:30:56;;;;;;;50.25;24.98;;;;;;;0.86;67.09;92544.91;5030155;28;20062;-35
2022/02/02 21:33:22;;;;;;;58.97;29.38;;;;;;;0.87;67.46;92549.13;5030045;28;20430;-35
2022/02/02 21:35:49;;;;;;;82.78;37.55;;;;;;;0.94;67.50;92554.72;5030269;28;20088;-34
2022/02/02 21:40:52;;;;;;;81.18;37.45;;;;;;;0.86;67.81;92536.75;5030699;28;20602;-36
2022/02/02 21:43:17;;;;;;;111.25;48.40;;;;;;;0.93;67.59;92555.97;5031515;28;20033;-36
2022/02/02 21:45:43;;;;;;;32.42;18.50;;;;;;;1.03;67.05;92559.81;5036725;28;20056;-36
2022/02/02 21:48:08;;;;;;;29.98;17.80;;;;;;;0.95;66.79;92567.06;5039820;28;20032;-36
2022/02/02 21:51:10;;;;;;;29.02;17.00;;;;;;;0.97;67.56;92564.56;5041393;28;20479;-37
2022/02/02 21:53:26;;;;;;;31.95;15.32;;;;;;;1.06;66.90;92558.06;5035497;28;20049;-36
2022/02/02 21:55:52;;;;;;;24.50;11.98;;;;;;;1.07;66.92;92562.97;5038020;28;20033;-36
2022/02/02 21:58:17;;;;;;;25.00;13.38;;;;;;;1.13;67.05;92563.66;5038508;28;20057;-36
2022/02/02 22:00:43;;;;;;;22.63;12.35;;;;;;;1.14;66.23;92565.16;5039373;28;20553;-37
2022/02/02 22:03:09;;;;;;;20.17;11.48;;;;;;;1.15;66.44;92566.59;5039823;28;20044;-36
2022/02/02 22:05:35;;;;;;;27.27;11.55;;;;;;;1.15;67.20;92565.88;5041074;28;20029;-36
2022/02/02 22:08:03;;;;;;;26.48;14.57;;;;;;;1.10;66.65;92572.09;5037058;28;20144;-36
2022/02/02 22:10:29;;;;;;;23.33;12.63;;;;;;;0.94;67.42;92568.28;5037930;28;20067;-38
2022/02/02 22:12:54;;;;;;;22.15;10.48;;;;;;;1.13;66.53;92579.97;5040856;28;20075;-36
2022/02/02 22:15:27;;;;;;;21.20;11.40;;;;;;;1.08;66.25;92575.34;5040074;28;20063;-36
2022/02/02 22:17:53;;;;;;;19.60;10.48;;;;;;;1.07;66.31;92582.00;5035537;28;20036;-36
2022/02/02 22:20:19;;;;;;;24.15;11.48;;;;;;;1.19;67.10;92579.94;5040221;28;20025;-35
2022/02/02 22:22:46;;;;;;;23.95;13.20;;;;;;;1.04;66.73;92576.88;5038629;28;20410;-36
2022/02/02 22:25:12;;;;;;;13.95;8.95;;;;;;;1.02;67.02;92574.63;5038520;28;20036;-36
2022/02/02 22:27:38;;;;;;;15.23;8.57;;;;;;;1.07;67.59;92589.44;5038064;28;20021;-36
2022/02/02 22:30:05;;;;;;;13.23;8.30;;;;;;;1.05;66.92;92587.22;5039233;28;20033;-35
2022/02/02 22:32:31;;;;;;;14.48;9.23;;;;;;;1.16;66.68;92592.56;5038822;28;20119;-36